Time;durP1;ratioP1;P1;durP2;ratioP2;P2;SDS_P1;SDS_P2;PMS_P1;PMS_P2;Temp;Humidity;BMP_temperature;BMP_pressure;BME280_temperature;BME280_humidity;BME280_pressure;Samples;Min_cycle;Max_cycle;Signal;HPM_P1;HPM_P2
2023/11/16 00:00:47;;;;;;;11.50;6.90;;;;;;;10.85;66.27;99392.74;105430;1257;64682;-55
2023/11/16 00:03:14;;;;;;;11.10;7.90;;;;;;;10.87;66.31;99392.02;105479;1255;60176;-55
2023/11/16 00:05:43;;;;;;;12.50;8.10;;;;;;;10.88;66.29;99396.86;105324;1257;62580;-54
2023/11/16 00:08:11;;;;;;;11.50;8.20;;;;;;;10.87;66.27;99399.41;105902;1254;59802;-55
2023/11/16 00:10:39;;;;;;;10.20;6.70;;;;;;;10.83;66.24;99396.59;105418;1253;59686;-54
2023/11/16 00:13:08;;;;;;;10.20;6.90;;;;;;;10.84;66.09;99394.05;105693;1255;62925;-54
2023/11/16 00:15:37;;;;;;;6.80;2.60;;;;;;;10.84;65.93;99395.94;105758;1259;60262;-55
2023/11/16 00:18:05;;;;;;;10.20;6.60;;;;;;;10.85;65.97;99400.48;105161;1257;62689;-53
2023/11/16 00:20:35;;;;;;;10.60;7.20;;;;;;;10.84;66.11;99395.86;105339;1259;59721;-52
2023/11/16 00:23:04;;;;;;;14.10;7.10;;;;;;;10.82;66.15;99397.27;105888;1256;59253;-58
2023/11/16 00:25:31;;;;;;;10.40;7.00;;;;;;;10.78;66.09;99393.90;106946;1257;62880;-58
2023/11/16 00:27:59;;;;;;;10.40;7.20;;;;;;;10.74;66.20;99392.02;106068;1255;62244;-53
2023/11/16 00:30:28;;;;;;;9.70;6.50;;;;;;;10.72;66.29;99393.14;105975;1259;64284;-55
2023/11/16 00:32:56;;;;;;;9.50;6.70;;;;;;;10.72;66.25;99398.35;105651;1257;59757;-53
2023/11/16 00:35:24;;;;;;;12.30;6.90;;;;;;;10.75;66.03;99397.20;106013;1256;59709;-59
2023/11/16 00:37:52;;;;;;;8.70;6.30;;;;;;;10.78;66.05;99401.81;105394;1258;66520;-56
2023/11/16 00:40:22;;;;;;;10.40;6.80;;;;;;;10.76;66.13;99400.76;105213;1256;61394;-56
2023/11/16 00:42:50;;;;;;;10.60;6.70;;;;;;;10.73;66.21;99400.02;105945;1259;62424;-55
2023/11/16 00:45:19;;;;;;;11.00;7.70;;;;;;;10.68;66.24;99399.95;106122;1257;59558;-55
2023/11/16 00:47:48;;;;;;;18.30;7.80;;;;;;;10.65;66.17;99402.34;106105;1253;59764;-55
2023/11/16 00:50:15;;;;;;;10.50;7.30;;;;;;;10.66;66.18;99404.71;105397;1254;63054;-54
2023/11/16 00:52:47;;;;;;;11.60;7.30;;;;;;;10.67;66.14;99407.10;105268;1257;61938;-50
2023/11/16 00:55:17;;;;;;;9.80;7.10;;;;;;;10.70;66.33;99407.34;105465;1259;63793;-54
2023/11/16 00:57:47;;;;;;;12.50;7.70;;;;;;;10.69;66.16;99405.70;106265;1256;60499;-53
2023/11/16 01:00:16;;;;;;;12.00;8.50;;;;;;;10.65;66.29;99405.33;105984;1255;60298;-56
2023/11/16 01:02:48;;;;;;;12.30;8.00;;;;;;;10.59;66.31;99408.17;106161;1259;65445;-56
2023/11/16 01:05:17;;;;;;;11.00;7.50;;;;;;;10.53;66.59;99405.59;106226;1259;60431;-53
2023/11/16 01:07:45;;;;;;;12.20;7.60;;;;;;;10.54;66.45;99407.78;105466;1257;62497;-53
2023/11/16 01:10:17;;;;;;;10.80;7.00;;;;;;;10.55;66.48;99406.80;106250;1256;60546;-54
2023/11/16 01:12:45;;;;;;;12.00;7.90;;;;;;;10.55;66.50;99406.27;105606;1253;60613;-53
2023/11/16 01:15:14;;;;;;;10.30;6.30;;;;;;;10.54;66.80;99405.86;106105;1253;63713;-53
2023/11/16 01:17:45;;;;;;;9.90;7.00;;;;;;;10.53;66.94;99406.67;105869;1253;61850;-55
2023/11/16 01:20:18;;;;;;;15.80;7.00;;;;;;;10.50;66.94;99407.14;105722;1254;62460;-53
2023/11/16 01:23:01;;;;;;;9.50;6.10;;;;;;;10.47;67.00;99406.41;105993;1254;60563;-54
2023/11/16 01:25:32;;;;;;;10.60;6.50;;;;;;;10.46;66.96;99409.09;105348;1253;60437;-53
2023/11/16 01:28:00;;;;;;;5.40;2.00;;;;;;;10.48;67.11;99409.45;106665;1254;63758;-52
2023/11/16 01:30:28;;;;;;;8.60;5.50;;;;;;;10.52;67.11;99411.36;106437;1258;60454;-53
2023/11/16 01:32:56;;;;;;;12.90;6.70;;;;;;;10.56;67.08;99410.23;106265;1253;62450;-53
2023/11/16 01:35:25;;;;;;;9.60;6.10;;;;;;;10.58;67.31;99414.63;105551;1253;60534;-53
2023/11/16 01:37:56;;;;;;;10.50;6.70;;;;;;;10.56;67.29;99417.77;106620;1251;60572;-53
2023/11/16 01:40:27;;;;;;;10.00;6.50;;;;;;;10.55;67.35;99418.44;106520;1253;64849;-53
2023/11/16 01:42:57;;;;;;;12.40;6.30;;;;;;;10.54;67.39;99419.73;106242;1253;61321;-54
2023/11/16 01:45:30;;;;;;;12.60;6.90;;;;;;;10.56;67.36;99417.21;105536;1254;63703;-53
2023/11/16 01:48:06;;;;;;;10.10;6.80;;;;;;;10.58;67.37;99413.32;106004;1256;60434;-54
2023/11/16 01:50:36;;;;;;;7.90;5.70;;;;;;;10.63;67.54;99413.23;106002;1253;60854;-52
2023/11/16 01:53:09;;;;;;;13.00;7.40;;;;;;;10.66;67.54;99412.48;106121;1254;65105;-55
2023/11/16 01:55:40;;;;;;;10.90;8.20;;;;;;;10.64;67.65;99407.59;105964;1256;60444;-54
2023/11/16 01:58:07;;;;;;;13.00;8.30;;;;;;;10.63;67.73;99407.13;106134;1253;63787;-54
2023/11/16 02:00:36;;;;;;;11.70;7.30;;;;;;;10.67;67.70;99411.01;105224;1253;60556;-55
2023/11/16 02:03:04;;;;;;;11.80;7.10;;;;;;;10.70;67.66;99410.83;106869;1253;60407;-55
2023/11/16 02:05:33;;;;;;;11.10;7.20;;;;;;;10.74;67.68;99414.89;106102;1258;64988;-54
2023/11/16 02:08:03;;;;;;;12.40;7.30;;;;;;;10.73;67.66;99414.57;106049;1256;60439;-54
2023/11/16 02:10:31;;;;;;;10.80;7.10;;;;;;;10.71;67.87;99413.55;106968;1256;62440;-52
2023/11/16 02:12:59;;;;;;;11.90;6.90;;;;;;;10.71;67.95;99417.45;105429;1256;60611;-52
2023/11/16 02:15:30;;;;;;;9.40;6.30;;;;;;;10.75;67.92;99417.05;106059;1256;60298;-53
2023/11/16 02:17:59;;;;;;;9.50;6.50;;;;;;;10.81;67.66;99417.53;105517;1254;64964;-54
2023/11/16 02:20:28;;;;;;;10.50;5.90;;;;;;;10.83;67.77;99419.80;105426;1256;61497;-56
2023/11/16 02:22:56;;;;;;;9.80;6.30;;;;;;;10.81;67.67;99420.52;105711;1257;70879;-53
2023/11/16 02:25:26;;;;;;;10.10;6.30;;;;;;;10.77;67.84;99423.36;105370;1256;60448;-54
2023/11/16 02:27:55;;;;;;;9.60;6.50;;;;;;;10.75;68.03;99423.56;105492;1256;62236;-54
2023/11/16 02:30:24;;;;;;;8.40;5.60;;;;;;;10.73;68.14;99426.67;105544;1253;65653;-56
2023/11/16 02:32:52;;;;;;;8.70;5.80;;;;;;;10.75;68.02;99424.02;106099;1257;61399;-55
2023/11/16 02:35:19;;;;;;;9.10;5.80;;;;;;;10.81;68.00;99427.54;106585;1255;62428;-54
2023/11/16 02:37:47;;;;;;;8.00;5.30;;;;;;;10.85;67.79;99428.85;105554;1254;60698;-56
2023/11/16 02:40:17;;;;;;;9.20;5.30;;;;;;;10.86;67.74;99429.70;105731;1256;60400;-53
2023/11/16 02:42:47;;;;;;;11.10;5.90;;;;;;;10.84;67.87;99432.61;105748;1254;63739;-54
2023/11/16 02:45:16;;;;;;;7.80;5.30;;;;;;;10.81;67.78;99433.27;105739;1253;68696;-54
2023/11/16 02:47:46;;;;;;;8.70;5.30;;;;;;;10.75;67.70;99434.89;106298;1258;62463;-54
2023/11/16 02:50:16;;;;;;;7.10;4.70;;;;;;;10.76;67.63;99432.89;106058;1253;60536;-54
2023/11/16 02:52:44;;;;;;;10.00;4.90;;;;;;;10.79;67.60;99434.92;106612;1253;60341;-54
2023/11/16 02:55:12;;;;;;;7.50;4.40;;;;;;;10.81;67.57;99438.42;105439;1257;65396;-53
2023/11/16 02:57:39;;;;;;;7.90;4.70;;;;;;;10.80;67.53;99442.16;105887;1255;60444;-54
2023/11/16 03:00:14;;;;;;;10.20;5.10;;;;;;;10.79;67.48;99444.52;107035;1254;63690;-55
2023/11/16 03:02:42;;;;;;;7.30;4.50;;;;;;;10.78;67.57;99448.81;106101;1257;60480;-57
2023/11/16 03:05:17;;;;;;;8.70;4.60;;;;;;;10.78;67.64;99448.66;105875;1256;60459;-54
2023/11/16 03:07:46;;;;;;;4.80;2.00;;;;;;;10.84;67.47;99449.39;106228;1253;64937;-54
2023/11/16 03:10:14;;;;;;;7.30;4.20;;;;;;;10.88;67.15;99454.92;106041;1257;60476;-54
2023/11/16 03:12:42;;;;;;;9.20;4.60;;;;;;;10.88;66.95;99451.19;105922;1254;63703;-55
2023/11/16 03:15:09;;;;;;;7.10;4.40;;;;;;;10.86;67.03;99451.61;105612;1259;60454;-55
2023/11/16 03:17:40;;;;;;;10.10;4.50;;;;;;;10.82;67.11;99455.62;105657;1251;60567;-54
2023/11/16 03:20:09;;;;;;;6.50;4.40;;;;;;;10.78;67.07;99457.59;107140;1258;65132;-53
2023/11/16 03:22:38;;;;;;;7.10;4.00;;;;;;;10.79;66.93;99455.80;106107;1256;61316;-52
2023/11/16 03:25:09;;;;;;;7.00;4.10;;;;;;;10.79;66.94;99459.59;105971;1259;63680;-53
2023/11/16 03:27:36;;;;;;;8.50;4.40;;;;;;;10.80;66.93;99465.88;106577;1252;60443;-51
2023/11/16 03:30:05;;;;;;;9.10;4.10;;;;;;;10.79;66.98;99459.13;106269;1256;60753;-55
2023/11/16 03:32:33;;;;;;;6.80;4.30;;;;;;;10.75;66.96;99458.98;106598;1254;63633;-54
2023/11/16 03:35:02;;;;;;;8.40;4.30;;;;;;;10.70;67.09;99460.12;106518;1253;61835;-53
2023/11/16 03:37:31;;;;;;;7.30;4.20;;;;;;;10.66;67.19;99460.65;106036;1255;63671;-51
2023/11/16 03:40:04;;;;;;;7.80;4.10;;;;;;;10.65;67.13;99459.52;105487;1254;60594;-53
2023/11/16 03:42:32;;;;;;;7.90;3.90;;;;;;;10.67;67.09;99464.06;106055;1257;60533;-54
2023/11/16 03:45:00;;;;;;;8.60;4.50;;;;;;;10.68;67.03;99465.55;105982;1254;63673;-55
2023/11/16 03:47:28;;;;;;;8.40;4.90;;;;;;;10.67;67.11;99464.64;105516;1257;60465;-55
2023/11/16 03:49:58;;;;;;;8.30;4.70;;;;;;;10.67;67.28;99472.17;105488;1257;62628;-52
2023/11/16 03:52:26;;;;;;;8.60;5.70;;;;;;;10.66;67.21;99474.34;105491;1259;60559;-55
2023/11/16 03:54:54;;;;;;;7.20;4.50;;;;;;;10.65;67.28;99474.52;106215;1256;60583;-55
2023/11/16 03:57:22;;;;;;;7.10;4.50;;;;;;;10.68;67.32;99473.11;105747;1256;64024;-55
2023/11/16 03:59:49;;;;;;;8.20;4.70;;;;;;;10.74;67.15;99477.46;105330;1258;61311;-55
2023/11/16 04:02:17;;;;;;;10.10;5.30;;;;;;;10.79;66.90;99483.53;105197;1253;62457;-55
2023/11/16 04:04:47;;;;;;;8.30;5.40;;;;;;;10.77;66.97;99485.63;105636;1254;60538;-55
2023/11/16 04:07:16;;;;;;;8.60;5.20;;;;;;;10.72;67.02;99482.70;105257;1257;60456;-55
2023/11/16 04:09:43;;;;;;;9.10;5.70;;;;;;;10.68;67.08;99487.02;105744;1259;64863;-54
2023/11/16 04:12:12;;;;;;;8.10;5.00;;;;;;;10.64;67.12;99488.76;105707;1256;61859;-54
2023/11/16 04:14:41;;;;;;;5.60;2.60;;;;;;;10.66;67.05;99488.77;106159;1257;62630;-54
2023/11/16 04:17:13;;;;;;;8.30;5.50;;;;;;;10.69;66.89;99493.91;106676;1254;60622;-54
2023/11/16 04:19:41;;;;;;;8.10;5.70;;;;;;;10.71;66.81;99492.66;105750;1256;60574;-53
2023/11/16 04:22:10;;;;;;;9.00;5.90;;;;;;;10.71;66.80;99494.95;106167;1257;63782;-54
2023/11/16 04:24:39;;;;;;;9.10;6.00;;;;;;;10.68;66.90;99494.72;105909;1259;60357;-54
2023/11/16 04:27:07;;;;;;;9.20;5.80;;;;;;;10.63;67.06;99496.24;105966;1257;62439;-54
2023/11/16 04:29:36;;;;;;;8.80;5.70;;;;;;;10.62;66.97;99497.54;105760;1257;60622;-54
2023/11/16 04:32:05;;;;;;;8.50;5.90;;;;;;;10.65;66.93;99497.44;106329;1259;60387;-54
2023/11/16 04:34:33;;;;;;;8.90;5.30;;;;;;;10.66;66.93;99496.30;106268;1256;63709;-53
2023/11/16 04:37:04;;;;;;;8.70;5.60;;;;;;;10.65;66.88;99495.51;106415;1255;61474;-54
2023/11/16 04:44:25;;;;;;;5.70;2.40;;;;;;;10.37;67.74;99496.52;104369;1293;600990;-88
2023/11/16 04:46:55;;;;;;;9.30;5.60;;;;;;;10.61;66.98;99498.74;107268;1260;58701;-86
2023/11/16 04:49:26;;;;;;;9.10;5.50;;;;;;;10.68;66.56;99501.20;107323;1257;59361;-87
2023/11/16 04:51:58;;;;;;;7.80;5.20;;;;;;;10.73;66.50;99500.02;106712;1261;62312;-86
2023/11/16 04:54:27;;;;;;;9.70;6.00;;;;;;;10.75;66.25;99500.56;106448;1270;69385;-85
2023/11/16 05:03:50;;;;;;;10.30;4.00;;;;;;;10.68;65.78;99510.20;108012;1269;56971;-53
2023/11/16 05:06:17;;;;;;;7.50;4.50;;;;;;;10.70;65.44;99514.81;108171;1270;56975;-55
2023/11/16 05:08:44;;;;;;;6.50;3.60;;;;;;;10.70;65.26;99517.98;105034;1266;63506;-53
2023/11/16 05:11:18;;;;;;;7.70;3.90;;;;;;;10.66;64.85;99520.98;105931;1263;62003;-50
2023/11/16 05:13:45;;;;;;;6.20;3.90;;;;;;;10.61;64.58;99528.54;102413;1267;3486022;-53
2023/11/16 05:16:13;;;;;;;5.70;3.10;;;;;;;10.54;64.43;99526.52;105058;1263;59400;-51
2023/11/16 05:18:41;;;;;;;5.40;3.10;;;;;;;10.54;64.40;99534.45;105483;1259;59145;-53
2023/11/16 05:21:08;;;;;;;6.00;3.20;;;;;;;10.55;64.26;99538.17;105736;1259;63603;-52
2023/11/16 05:23:36;;;;;;;7.30;4.30;;;;;;;10.54;64.50;99541.77;105959;1262;61668;-52
2023/11/16 05:26:03;;;;;;;9.20;3.20;;;;;;;10.46;64.57;99546.58;108046;1260;62743;-54
2023/11/16 05:28:30;;;;;;;6.90;3.20;;;;;;;10.33;64.62;99545.27;106337;1259;59787;-52
2023/11/16 05:30:57;;;;;;;6.30;2.30;;;;;;;10.21;64.63;99546.16;105664;1259;59641;-53
2023/11/16 05:33:24;;;;;;;7.00;2.00;;;;;;;10.15;64.51;99548.45;105273;1262;64405;-53
2023/11/16 05:35:51;;;;;;;4.90;1.90;;;;;;;10.11;64.04;99551.52;105012;1259;61980;-51
2023/11/16 05:38:21;;;;;;;4.60;2.40;;;;;;;10.04;63.67;99556.71;104690;1259;64016;-54
2023/11/16 05:40:51;;;;;;;5.90;2.10;;;;;;;9.97;63.57;99564.20;106627;1260;59577;-54
2023/11/16 05:43:19;;;;;;;5.20;2.40;;;;;;;9.87;63.10;99573.41;108814;1259;57621;-55
2023/11/16 05:45:46;;;;;;;4.90;2.00;;;;;;;9.79;62.73;99567.52;108715;1260;64925;-54
2023/11/16 05:48:14;;;;;;;3.60;1.30;;;;;;;9.73;62.44;99567.73;108771;1259;60571;-53
2023/11/16 05:50:42;;;;;;;7.10;1.70;;;;;;;9.74;62.24;99572.16;108680;1260;62809;-55
2023/11/16 05:53:09;;;;;;;3.80;1.20;;;;;;;9.78;61.72;99582.77;108789;1261;57624;-55
2023/11/16 05:55:36;;;;;;;3.40;1.20;;;;;;;9.74;60.88;99593.17;108770;1259;57450;-57
2023/11/16 05:58:05;;;;;;;3.60;1.20;;;;;;;9.72;60.87;99579.20;108720;1259;64473;-54
2023/11/16 06:00:36;;;;;;;3.40;1.30;;;;;;;9.70;60.93;99581.86;105545;1260;61763;-55
2023/11/16 06:03:04;;;;;;;3.30;1.30;;;;;;;9.67;60.82;99579.31;106498;1259;63880;-58
2023/11/16 06:05:32;;;;;;;6.10;1.10;;;;;;;9.60;60.41;99589.83;108804;1260;57652;-57
2023/11/16 06:07:59;;;;;;;1.20;0.30;;;;;;;9.53;60.38;99581.58;108761;1259;57402;-53
2023/11/16 06:10:26;;;;;;;3.40;1.20;;;;;;;9.52;60.30;99585.52;108753;1259;64811;-53
2023/11/16 06:12:57;;;;;;;3.80;1.40;;;;;;;9.53;60.42;99584.69;108815;1259;60607;-53
2023/11/16 06:15:25;;;;;;;5.90;1.90;;;;;;;9.50;60.51;99583.02;105460;1264;64601;-54
2023/11/16 06:17:57;;;;;;;4.00;1.40;;;;;;;9.44;60.63;99589.20;105065;1260;59784;-54
2023/11/16 06:20:24;;;;;;;6.00;1.90;;;;;;;9.37;60.75;99592.61;105104;1260;59773;-53
2023/11/16 06:22:52;;;;;;;4.20;0.70;;;;;;;9.33;60.97;99593.63;107075;1259;64831;-54
2023/11/16 06:25:19;;;;;;;4.20;1.70;;;;;;;9.30;61.25;99596.85;105281;1260;61591;-54
2023/11/16 06:27:47;;;;;;;3.70;1.30;;;;;;;9.26;61.23;99601.54;105396;1260;64131;-53
2023/11/16 06:30:14;;;;;;;4.10;1.60;;;;;;;9.29;61.36;99597.64;104854;1263;60965;-54
2023/11/16 06:32:44;;;;;;;5.00;2.10;;;;;;;9.36;61.28;99599.52;105461;1259;59557;-54
2023/11/16 06:35:13;;;;;;;1.50;0.50;;;;;;;9.38;61.09;99603.04;105054;1263;64708;-55
2023/11/16 06:37:39;;;;;;;4.60;1.60;;;;;;;9.34;61.06;99605.09;106265;1259;62163;-56
2023/11/16 06:40:10;;;;;;;3.30;1.40;;;;;;;9.32;61.30;99601.97;105811;1257;62874;-55
2023/11/16 06:42:37;;;;;;;1.20;0.30;;;;;;;9.32;61.20;99606.84;106100;1258;59555;-60
2023/11/16 06:45:05;;;;;;;5.30;1.50;;;;;;;9.31;61.00;99610.92;106103;1259;59630;-66
2023/11/16 06:47:33;;;;;;;2.00;0.50;;;;;;;9.28;60.85;99613.30;105787;1256;63162;-57
2023/11/16 06:50:03;;;;;;;4.50;1.20;;;;;;;9.31;60.82;99612.33;106519;1256;62255;-62
2023/11/16 06:52:30;;;;;;;1.30;0.30;;;;;;;9.37;60.44;99617.81;105883;1257;63770;-59
2023/11/16 06:54:59;;;;;;;2.50;0.80;;;;;;;9.38;59.97;99619.42;106277;1257;59577;-59
2023/11/16 06:57:26;;;;;;;3.40;0.80;;;;;;;9.38;59.84;99618.25;106025;1256;59765;-58
2023/11/16 06:59:54;;;;;;;1.80;0.30;;;;;;;9.36;59.44;99622.59;105703;1256;64227;-61
2023/11/16 07:02:22;;;;;;;3.60;1.10;;;;;;;9.33;58.95;99621.67;105661;1260;61489;-60
2023/11/16 07:04:49;;;;;;;5.20;2.40;;;;;;;9.32;59.06;99620.53;105114;1257;63766;-58
2023/11/16 07:07:16;;;;;;;0.50;0.20;;;;;;;9.30;59.08;99624.31;104804;1256;59755;-61
2023/11/16 07:09:49;;;;;;;5.90;1.00;;;;;;;9.30;59.11;99624.29;108933;1256;57629;-61
2023/11/16 07:12:20;;;;;;;2.00;0.60;;;;;;;9.33;58.96;99629.13;108933;1257;64928;-61
2023/11/16 07:14:52;;;;;;;1.00;0.20;;;;;;;9.37;58.57;99627.55;108890;1255;62166;-57
2023/11/16 07:17:21;;;;;;;2.20;0.50;;;;;;;9.37;58.48;99633.41;108833;1255;64072;-59
2023/11/16 07:19:48;;;;;;;2.20;0.50;;;;;;;9.30;58.48;99632.16;105610;1257;60289;-60
2023/11/16 07:22:17;;;;;;;1.70;0.40;;;;;;;9.28;58.84;99633.30;104909;1257;59770;-60
2023/11/16 07:24:44;;;;;;;2.80;0.60;;;;;;;9.23;58.62;99634.91;105476;1257;64333;-65
2023/11/16 07:27:13;;;;;;;1.50;0.40;;;;;;;9.17;58.79;99630.87;106565;1257;62695;-60
2023/11/16 07:29:43;;;;;;;0.60;0.10;;;;;;;9.13;59.12;99637.87;105350;1258;64466;-58
2023/11/16 07:32:12;;;;;;;2.80;0.20;;;;;;;9.15;59.30;99640.73;105990;1257;59773;-59
2023/11/16 07:34:43;;;;;;;2.40;0.70;;;;;;;9.19;59.51;99646.27;105419;1257;59686;-58
2023/11/16 07:37:11;;;;;;;1.60;0.40;;;;;;;9.18;60.02;99661.77;105941;1259;64263;-57
2023/11/16 07:39:38;;;;;;;2.90;0.80;;;;;;;9.08;60.77;99663.80;105443;1257;61698;-60
2023/11/16 07:42:05;;;;;;;1.40;0.60;;;;;;;8.96;61.66;99660.86;105377;1257;64039;-61
2023/11/16 07:44:32;;;;;;;5.00;0.70;;;;;;;8.83;62.45;99669.10;105582;1257;59726;-62
2023/11/16 07:46:59;;;;;;;1.60;0.40;;;;;;;8.70;63.00;99680.16;104753;1257;59605;-63
2023/11/16 07:49:27;;;;;;;1.80;0.20;;;;;;;8.61;62.99;99685.08;106505;1256;63053;-60
2023/11/16 07:51:54;;;;;;;3.30;0.70;;;;;;;8.59;62.90;99689.96;105390;1257;62275;-61
2023/11/16 07:54:21;;;;;;;0.80;0.10;;;;;;;8.54;62.87;99689.17;104711;1262;62762;-60
2023/11/16 07:56:59;;;;;;;3.20;0.60;;;;;;;8.48;62.74;99692.14;105074;1256;59894;-58
2023/11/16 07:59:34;;;;;;;0.90;0.20;;;;;;;8.41;62.65;99693.90;104776;1256;60069;-59
2023/11/16 08:02:01;;;;;;;4.00;0.80;;;;;;;8.35;62.65;99697.00;105898;1260;64422;-61
2023/11/16 08:04:31;;;;;;;0.60;0.30;;;;;;;8.32;62.59;99703.02;105258;1260;60337;-62
2023/11/16 08:06:59;;;;;;;2.40;0.50;;;;;;;8.34;62.38;99705.60;108854;1256;62673;-59
2023/11/16 08:09:26;;;;;;;3.60;0.90;;;;;;;8.40;62.00;99711.08;108895;1256;57587;-59
2023/11/16 08:11:56;;;;;;;3.00;1.00;;;;;;;8.43;61.66;99715.45;108936;1256;57621;-59
2023/11/16 08:14:26;;;;;;;5.10;1.80;;;;;;;8.41;61.23;99720.66;105995;1256;64803;-60
2023/11/16 08:16:58;;;;;;;4.20;1.60;;;;;;;8.38;61.07;99732.55;108905;1256;61930;-60
2023/11/16 08:19:34;;;;;;;3.20;1.10;;;;;;;8.30;60.38;99737.36;108904;1256;62855;-61
2023/11/16 08:22:01;;;;;;;2.20;0.60;;;;;;;8.24;60.27;99738.40;105236;1260;59766;-60
2023/11/16 08:24:30;;;;;;;4.60;1.40;;;;;;;8.18;60.20;99745.52;105823;1256;59750;-59
2023/11/16 08:26:58;;;;;;;3.00;0.50;;;;;;;8.12;59.96;99744.43;105090;1256;63308;-58
2023/11/16 08:29:25;;;;;;;2.70;0.70;;;;;;;8.14;59.81;99754.75;105641;1256;62797;-60
2023/11/16 08:31:56;;;;;;;3.40;1.10;;;;;;;8.12;59.20;99755.77;105302;1256;63951;-58
2023/11/16 08:34:27;;;;;;;2.70;0.40;;;;;;;8.13;59.07;99756.92;105202;1257;59671;-63
2023/11/16 08:36:54;;;;;;;2.90;0.80;;;;;;;8.12;59.13;99753.18;105996;1256;60123;-64
2023/11/16 08:39:21;;;;;;;1.40;0.20;;;;;;;8.16;58.83;99750.61;104984;1257;63187;-60
2023/11/16 08:41:48;;;;;;;2.40;0.40;;;;;;;8.21;58.59;99754.17;105138;1257;70627;-61
2023/11/16 08:44:16;;;;;;;0.80;0.30;;;;;;;8.23;58.10;99754.39;106470;1256;63895;-58
2023/11/16 08:46:52;;;;;;;0.30;0.10;;;;;;;8.20;57.81;99755.29;106077;1256;60884;-60
2023/11/16 08:49:19;;;;;;;3.40;0.90;;;;;;;8.18;57.83;99761.70;106070;1258;62383;-59
2023/11/16 08:51:47;;;;;;;1.50;0.30;;;;;;;8.13;57.76;99762.66;105532;1258;64454;-61
2023/11/16 08:54:16;;;;;;;0.90;0.20;;;;;;;8.06;57.71;99760.30;108051;1259;60319;-60
2023/11/16 08:56:43;;;;;;;2.10;0.50;;;;;;;8.00;57.55;99771.21;105716;1257;64172;-58
2023/11/16 08:59:13;;;;;;;0.70;0.10;;;;;;;8.02;57.61;99763.75;105927;1256;59637;-54
2023/11/16 09:01:40;;;;;;;2.60;0.50;;;;;;;8.01;57.55;99770.30;105731;1256;59660;-54
2023/11/16 09:04:12;;;;;;;1.90;0.40;;;;;;;7.94;57.29;99775.90;106225;1256;64258;-54
2023/11/16 09:06:41;;;;;;;2.90;0.90;;;;;;;7.86;57.44;99772.48;105565;1257;61734;-54
2023/11/16 09:09:35;;;;;;;2.90;0.80;;;;;;;7.81;57.64;99769.73;105576;1256;63932;-52
2023/11/16 09:12:01;;;;;;;1.80;0.50;;;;;;;7.77;57.71;99766.34;105392;1256;60547;-55
2023/11/16 09:14:30;;;;;;;3.10;0.90;;;;;;;7.77;57.90;99768.16;106210;1257;60458;-59
2023/11/16 09:17:02;;;;;;;3.70;0.20;;;;;;;7.78;57.91;99767.59;105212;1260;65530;-60
2023/11/16 09:19:40;;;;;;;2.40;0.30;;;;;;;7.80;57.99;99764.25;105926;1258;70461;-59
2023/11/16 09:22:09;;;;;;;0.20;0.00;;;;;;;7.84;57.91;99762.74;107060;1256;65277;-60
2023/11/16 09:24:39;;;;;;;1.10;0.30;;;;;;;7.93;57.71;99761.84;105646;1256;61659;-60
2023/11/16 09:27:06;;;;;;;1.90;0.50;;;;;;;8.03;57.23;99765.39;105705;1256;60534;-64
2023/11/16 09:29:38;;;;;;;1.40;0.30;;;;;;;8.07;56.97;99770.20;105769;1261;65809;-61
2023/11/16 09:32:10;;;;;;;2.30;0.50;;;;;;;8.06;56.97;99773.08;105679;1256;61554;-62
2023/11/16 09:34:40;;;;;;;0.90;0.20;;;;;;;8.04;56.79;99774.06;105970;1258;63954;-61
2023/11/16 09:37:09;;;;;;;2.70;0.80;;;;;;;8.04;56.86;99778.26;105543;1256;60355;-60
2023/11/16 09:39:37;;;;;;;1.00;0.50;;;;;;;8.02;56.68;99781.41;105727;1258;60363;-61
2023/11/16 09:42:07;;;;;;;2.80;0.70;;;;;;;7.99;56.76;99783.55;104902;1260;64975;-62
2023/11/16 09:44:34;;;;;;;0.30;0.10;;;;;;;7.96;56.92;99790.72;105676;1256;61671;-60
2023/11/16 09:47:02;;;;;;;0.90;0.20;;;;;;;7.89;56.77;99791.29;105192;1256;65052;-69
2023/11/16 09:49:30;;;;;;;2.80;0.70;;;;;;;7.83;57.06;99789.70;105329;1259;60489;-63
2023/11/16 09:51:59;;;;;;;1.00;0.20;;;;;;;7.74;56.30;99792.79;105383;1258;60483;-57
2023/11/16 09:54:28;;;;;;;0.80;0.20;;;;;;;7.68;55.92;99788.42;105227;1262;65144;-60
2023/11/16 09:57:00;;;;;;;0.70;0.20;;;;;;;7.59;55.92;99797.80;105863;1262;60986;-58
2023/11/16 09:59:34;;;;;;;1.60;0.30;;;;;;;7.47;55.92;99791.23;105986;1256;63877;-66
2023/11/16 10:02:10;;;;;;;1.20;0.40;;;;;;;7.40;56.25;99795.44;105406;1256;60508;-60
2023/11/16 10:04:41;;;;;;;0.60;0.10;;;;;;;7.39;56.21;99798.64;105731;1259;60473;-61
2023/11/16 10:07:12;;;;;;;0.30;0.10;;;;;;;7.42;56.32;99798.41;105392;1261;65316;-61
2023/11/16 10:09:43;;;;;;;1.90;0.40;;;;;;;7.42;56.35;99793.66;107192;1256;61682;-62
2023/11/16 10:12:11;;;;;;;0.50;0.10;;;;;;;7.44;56.56;99786.71;105709;1256;64415;-65
2023/11/16 10:14:53;;;;;;;1.30;0.20;;;;;;;7.48;56.87;99787.17;105725;1259;61694;-62
2023/11/16 10:17:21;;;;;;;1.50;0.40;;;;;;;7.48;57.03;99784.88;105493;1257;60543;-61
2023/11/16 10:19:49;;;;;;;0.70;0.20;;;;;;;7.49;57.08;99785.01;105895;1260;65225;-63
2023/11/16 10:22:16;;;;;;;2.30;0.50;;;;;;;7.50;57.03;99790.09;105338;1256;61788;-61
2023/11/16 10:24:44;;;;;;;3.10;0.90;;;;;;;7.49;57.18;99788.81;105905;1257;73095;-60
2023/11/16 10:27:11;;;;;;;1.50;0.60;;;;;;;7.47;57.34;99787.20;105628;1257;59343;-63
2023/11/16 10:29:39;;;;;;;1.90;0.30;;;;;;;7.52;57.45;99791.90;105602;1258;59285;-61
2023/11/16 10:32:07;;;;;;;1.90;0.30;;;;;;;7.60;57.78;99799.46;107869;1256;65251;-63
2023/11/16 10:34:36;;;;;;;2.90;0.90;;;;;;;7.62;57.99;99799.98;107508;1259;61786;-62
2023/11/16 10:37:04;;;;;;;1.70;0.30;;;;;;;7.59;58.26;99802.15;105586;1257;64548;-62
2023/11/16 10:39:34;;;;;;;1.40;0.40;;;;;;;7.56;58.59;99804.11;106575;1257;60552;-60
2023/11/16 10:42:01;;;;;;;3.80;1.00;;;;;;;7.54;58.70;99806.22;106459;1259;60629;-61
2023/11/16 10:44:29;;;;;;;0.70;0.20;;;;;;;7.56;58.48;99802.21;107398;1259;65404;-60
2023/11/16 10:46:57;;;;;;;1.40;0.40;;;;;;;7.52;58.25;99809.84;105771;1256;61712;-65
2023/11/16 10:49:25;;;;;;;7.30;1.60;;;;;;;7.43;58.35;99806.84;106231;1256;64576;-66
2023/11/16 10:51:56;;;;;;;5.60;2.70;;;;;;;7.35;58.65;99810.34;105619;1258;60559;-60
2023/11/16 10:54:23;;;;;;;2.50;0.50;;;;;;;7.26;58.60;99813.23;106117;1259;60528;-64
2023/11/16 10:56:53;;;;;;;4.80;1.10;;;;;;;7.24;58.79;99810.73;105820;1256;66589;-62
2023/11/16 10:59:21;;;;;;;1.70;0.40;;;;;;;7.32;58.87;99811.73;106033;1256;61733;-61
2023/11/16 11:01:48;;;;;;;1.80;0.30;;;;;;;7.36;58.78;99814.90;105314;1260;64132;-62
2023/11/16 11:04:15;;;;;;;1.50;0.20;;;;;;;7.39;58.56;99812.24;105416;1256;60360;-66
2023/11/16 11:06:42;;;;;;;3.90;0.80;;;;;;;7.39;58.68;99814.00;105677;1260;60491;-60
2023/11/16 11:09:15;;;;;;;3.10;0.50;;;;;;;7.37;58.87;99815.85;105648;1261;64019;-61
2023/11/16 11:11:43;;;;;;;2.80;0.90;;;;;;;7.37;59.00;99819.75;105724;1256;61796;-60
2023/11/16 11:14:13;;;;;;;2.00;0.50;;;;;;;7.32;58.96;99820.83;106372;1256;63959;-63
2023/11/16 11:16:40;;;;;;;2.60;0.70;;;;;;;7.24;59.01;99822.14;106470;1256;60422;-63
2023/11/16 11:19:09;;;;;;;1.90;0.40;;;;;;;7.15;59.31;99828.33;108197;1256;60971;-63
2023/11/16 11:21:50;;;;;;;0.80;0.30;;;;;;;7.11;59.60;99827.09;105521;1257;65753;-64
2023/11/16 11:24:17;;;;;;;2.00;0.30;;;;;;;7.08;59.95;99829.73;104968;1257;61516;-59
2023/11/16 11:26:49;;;;;;;3.40;0.80;;;;;;;7.04;60.30;99833.15;105345;1259;63873;-61
2023/11/16 11:29:16;;;;;;;1.40;0.30;;;;;;;6.98;60.63;99833.77;105622;1256;61626;-61
2023/11/16 11:31:53;;;;;;;3.30;0.50;;;;;;;6.93;61.00;99840.77;105396;1258;61948;-60
2023/11/16 11:34:31;;;;;;;1.40;0.20;;;;;;;6.90;61.17;99841.71;107043;1257;65662;-61
2023/11/16 11:36:58;;;;;;;2.30;0.50;;;;;;;6.91;61.16;99840.09;105863;1256;61758;-62
2023/11/16 11:39:42;;;;;;;3.00;0.60;;;;;;;6.88;60.86;99845.02;105743;1257;64249;-60
2023/11/16 11:42:10;;;;;;;1.40;0.40;;;;;;;6.86;60.77;99837.77;105521;1260;61773;-61
2023/11/16 11:44:37;;;;;;;3.00;0.80;;;;;;;6.90;60.65;99839.39;105948;1256;60463;-60
2023/11/16 11:47:06;;;;;;;2.60;0.80;;;;;;;6.94;60.54;99856.23;106068;1260;64973;-59
2023/11/16 11:49:34;;;;;;;2.50;0.70;;;;;;;6.88;60.47;99857.91;107219;1259;60541;-59